createdAt,value
2023-09-17T00:01:33.699Z,19.12
2023-09-17T00:04:02.795Z,19.50
2023-09-17T00:06:30.358Z,19.23
2023-09-17T00:08:57.867Z,19.48
2023-09-17T00:11:24.917Z,19.53
2023-09-17T00:13:52.596Z,19.53
2023-09-17T00:16:20.374Z,19.50
2023-09-17T00:18:47.587Z,19.50
2023-09-17T00:21:14.878Z,19.24
2023-09-17T00:23:46.134Z,19.49
2023-09-17T00:26:13.558Z,19.36
2023-09-17T00:28:44.726Z,19.16
2023-09-17T00:31:11.735Z,19.16
2023-09-17T00:33:41.711Z,19.27
2023-09-17T00:36:08.933Z,19.29
2023-09-17T00:38:37.023Z,19.10
2023-09-17T00:41:04.148Z,18.91
2023-09-17T00:43:31.932Z,19.18
2023-09-17T00:45:59.793Z,19.07
2023-09-17T00:48:28.291Z,19.04
2023-09-17T00:50:58.021Z,19.21
2023-09-17T00:53:28.106Z,19.22
2023-09-17T00:55:56.211Z,19.27
2023-09-17T00:58:24.324Z,19.30
2023-09-17T01:00:53.184Z,19.23
2023-09-17T01:03:20.580Z,19.25
2023-09-17T01:05:49.321Z,19.27
2023-09-17T01:08:16.721Z,19.08
2023-09-17T01:10:44.267Z,19.30
2023-09-17T01:13:12.864Z,19.24
2023-09-17T01:15:40.361Z,19.18
2023-09-17T01:18:12.066Z,18.93
2023-09-17T01:21:04.111Z,18.99
2023-09-17T01:23:39.927Z,19.11
2023-09-17T01:26:18.745Z,19.13
2023-09-17T01:28:46.024Z,19.00
2023-09-17T01:31:13.886Z,19.31
2023-09-17T01:33:41.297Z,19.33
2023-09-17T01:36:18.928Z,18.86
2023-09-17T01:38:52.281Z,19.16
2023-09-17T01:41:20.530Z,18.84
2023-09-17T01:43:48.527Z,19.08
2023-09-17T01:46:18.248Z,19.20
2023-09-17T01:48:47.329Z,19.21
2023-09-17T01:51:15.316Z,18.82
2023-09-17T01:53:43.709Z,19.18
2023-09-17T01:56:13.707Z,19.10
2023-09-17T01:58:40.985Z,19.02
2023-09-17T02:01:08.413Z,18.99
2023-09-17T02:03:35.948Z,19.10
2023-09-17T02:06:05.672Z,18.98
2023-09-17T02:08:32.928Z,19.00
2023-09-17T02:11:00.014Z,18.97
2023-09-17T02:13:27.621Z,18.86
2023-09-17T02:15:55.238Z,18.92
2023-09-17T02:18:22.567Z,18.94
2023-09-17T02:20:49.811Z,18.46
2023-09-17T02:23:18.650Z,18.91
2023-09-17T02:25:47.142Z,18.81
2023-09-17T02:28:14.656Z,18.78
2023-09-17T02:30:42.291Z,18.79
2023-09-17T02:33:11.822Z,18.53
2023-09-17T02:35:39.729Z,18.88
2023-09-17T02:38:07.102Z,18.74
2023-09-17T02:40:34.103Z,18.75
2023-09-17T02:43:03.104Z,18.79
2023-09-17T02:45:30.185Z,18.64
2023-09-17T02:47:58.141Z,18.33
2023-09-17T02:50:29.897Z,18.64
2023-09-17T02:52:57.167Z,18.61
2023-09-17T02:55:24.930Z,17.84
2023-09-17T02:57:52.288Z,18.37
2023-09-17T03:00:24.181Z,18.34
2023-09-17T03:02:56.193Z,18.31
2023-09-17T03:05:24.080Z,18.17
2023-09-17T03:07:53.028Z,18.22
2023-09-17T03:10:21.910Z,17.73
2023-09-17T03:12:51.630Z,18.01
2023-09-17T03:15:20.219Z,17.89
2023-09-17T03:17:48.814Z,17.98
2023-09-17T03:20:19.178Z,17.76
2023-09-17T03:22:48.525Z,18.12
2023-09-17T03:25:16.753Z,18.04
2023-09-17T03:27:46.901Z,18.20
2023-09-17T03:30:14.770Z,17.99
2023-09-17T03:32:53.865Z,18.33
2023-09-17T03:35:28.383Z,17.85
2023-09-17T03:37:55.643Z,17.81
2023-09-17T03:40:23.189Z,17.90
2023-09-17T03:42:51.315Z,18.21
2023-09-17T03:45:19.606Z,18.18
2023-09-17T03:47:49.123Z,18.14
2023-09-17T03:50:21.045Z,18.19
2023-09-17T03:52:58.187Z,17.80
2023-09-17T03:55:26.146Z,18.10
2023-09-17T03:57:57.293Z,18.08
2023-09-17T04:00:26.805Z,17.64
2023-09-17T04:02:54.316Z,18.05
2023-09-17T04:05:26.407Z,18.05
2023-09-17T04:07:54.483Z,18.06
2023-09-17T04:10:25.924Z,18.08
2023-09-17T04:12:52.985Z,18.13
2023-09-17T04:15:23.343Z,18.10
2023-09-17T04:17:54.749Z,18.05
2023-09-17T04:20:22.434Z,18.22
2023-09-17T04:22:52.360Z,17.66
2023-09-17T04:25:23.920Z,18.25
2023-09-17T04:27:55.059Z,18.20
2023-09-17T04:30:25.386Z,18.23
2023-09-17T04:32:56.925Z,18.21
2023-09-17T04:35:25.486Z,18.21
2023-09-17T04:37:53.213Z,18.23
2023-09-17T04:40:31.531Z,18.19
2023-09-17T04:43:05.784Z,18.07
2023-09-17T04:45:39.358Z,18.28
2023-09-17T04:48:23.486Z,17.97
2023-09-17T04:50:50.938Z,18.37
2023-09-17T04:53:18.658Z,18.43
2023-09-17T04:55:48.584Z,18.37
2023-09-17T04:58:17.702Z,18.11
2023-09-17T05:00:48.675Z,18.57
2023-09-17T05:03:19.766Z,18.11
2023-09-17T05:05:47.809Z,18.55
2023-09-17T05:08:18.381Z,19.17
2023-09-17T05:10:47.006Z,19.19
2023-09-17T05:13:14.372Z,19.29
2023-09-17T05:15:41.608Z,19.40
2023-09-17T05:18:11.236Z,19.43
2023-09-17T05:20:45.730Z,19.35
2023-09-17T05:23:13.444Z,19.52
2023-09-17T05:25:40.971Z,19.29
2023-09-17T05:28:10.054Z,19.04
2023-09-17T05:30:37.987Z,19.00
2023-09-17T05:33:06.760Z,19.14
2023-09-17T05:35:35.709Z,19.61
2023-09-17T05:38:04.016Z,19.56
2023-09-17T05:40:31.568Z,19.79
2023-09-17T05:42:59.257Z,19.49
2023-09-17T05:45:27.736Z,19.45
2023-09-17T05:47:55.265Z,19.83
2023-09-17T05:50:24.034Z,20.00
2023-09-17T05:52:51.910Z,19.33
2023-09-17T05:55:20.061Z,20.01
2023-09-17T05:57:47.774Z,20.08
2023-09-17T06:00:16.125Z,19.87
2023-09-17T06:02:43.975Z,20.10
2023-09-17T06:05:16.283Z,20.15
2023-09-17T06:07:44.509Z,20.24
2023-09-17T06:10:13.342Z,20.00
2023-09-17T06:12:40.911Z,19.78
2023-09-17T06:15:08.870Z,20.26
2023-09-17T06:17:39.466Z,20.19
2023-09-17T06:20:07.484Z,20.05
2023-09-17T06:22:35.143Z,20.22
2023-09-17T06:25:04.834Z,20.17
2023-09-17T06:27:32.226Z,20.46
2023-09-17T06:30:00.886Z,20.27
2023-09-17T06:32:29.924Z,20.47
2023-09-17T06:34:57.506Z,20.19
2023-09-17T06:37:29.444Z,20.44
2023-09-17T06:39:58.806Z,20.67
2023-09-17T06:42:26.319Z,20.69
2023-09-17T06:44:53.347Z,20.72
2023-09-17T06:47:21.099Z,20.82
2023-09-17T06:49:48.901Z,20.54
2023-09-17T06:52:18.249Z,20.64
2023-09-17T06:54:46.875Z,20.96
2023-09-17T06:57:13.953Z,20.57
2023-09-17T06:59:41.214Z,20.79
2023-09-17T07:02:08.643Z,21.27
2023-09-17T07:04:35.670Z,20.86
2023-09-17T07:07:03.334Z,21.32
2023-09-17T07:09:30.425Z,21.42
2023-09-17T07:11:57.883Z,21.51
2023-09-17T07:14:25.318Z,21.26
2023-09-17T07:16:52.685Z,21.66
2023-09-17T07:19:20.660Z,21.69
2023-09-17T07:21:47.739Z,21.19
2023-09-17T07:24:15.516Z,21.78
2023-09-17T07:26:43.687Z,21.85
2023-09-17T07:29:10.775Z,21.77
2023-09-17T07:31:38.284Z,21.90
2023-09-17T07:34:05.729Z,21.88
2023-09-17T07:36:33.085Z,22.21
2023-09-17T07:39:00.703Z,21.72
2023-09-17T07:41:27.795Z,22.17
2023-09-17T07:43:57.818Z,22.13
2023-09-17T07:46:25.990Z,21.98
2023-09-17T07:48:53.087Z,21.97
2023-09-17T07:51:20.477Z,22.47
2023-09-17T07:53:48.035Z,22.28
2023-09-17T07:56:18.311Z,21.96
2023-09-17T07:58:47.001Z,22.62
2023-09-17T08:01:15.702Z,22.05
2023-09-17T08:03:43.260Z,22.65
2023-09-17T08:06:12.967Z,22.70
2023-09-17T08:08:40.175Z,22.64
2023-09-17T08:11:08.557Z,22.60
2023-09-17T08:13:35.625Z,22.48
2023-09-17T08:16:03.653Z,22.71
2023-09-17T08:18:36.781Z,22.23
2023-09-17T08:21:05.720Z,22.68
2023-09-17T08:23:32.733Z,22.59
2023-09-17T08:26:02.729Z,22.44
2023-09-17T08:28:30.004Z,22.50
2023-09-17T08:30:57.391Z,22.58
2023-09-17T08:33:24.815Z,22.18
2023-09-17T08:35:52.169Z,22.15
2023-09-17T08:38:20.274Z,22.12
2023-09-17T08:40:49.186Z,22.45
2023-09-17T08:43:18.369Z,22.41
2023-09-17T08:45:45.962Z,22.63
2023-09-17T08:48:15.137Z,22.70
2023-09-17T08:50:43.734Z,22.98
2023-09-17T08:53:14.199Z,22.89
2023-09-17T08:55:41.548Z,23.25
2023-09-17T08:58:13.641Z,23.30
2023-09-17T09:00:46.268Z,22.73
2023-09-17T09:03:18.640Z,23.01
2023-09-17T09:05:48.724Z,23.42
2023-09-17T09:08:16.632Z,23.21
2023-09-17T09:10:43.940Z,23.31
2023-09-17T09:13:14.440Z,23.44
2023-09-17T09:15:42.750Z,23.50
2023-09-17T09:18:10.383Z,23.25
2023-09-17T09:20:39.835Z,23.69
2023-09-17T09:23:08.314Z,23.70
2023-09-17T09:25:36.557Z,23.78
2023-09-17T09:29:02.626Z,23.95
2023-09-17T09:31:31.029Z,24.15
2023-09-17T09:34:01.213Z,24.31
2023-09-17T09:36:29.857Z,24.22
2023-09-17T09:38:59.606Z,24.07
2023-09-17T09:41:30.746Z,24.43
2023-09-17T09:43:58.620Z,24.61
2023-09-17T09:46:28.526Z,24.60
2023-09-17T09:49:04.157Z,24.48
2023-09-17T09:51:32.964Z,24.29
2023-09-17T09:54:00.340Z,23.92
2023-09-17T09:56:29.642Z,24.04
2023-09-17T09:58:58.065Z,23.83
2023-09-17T10:01:27.073Z,24.16
2023-09-17T10:03:59.422Z,23.98
2023-09-17T10:06:27.438Z,24.00
2023-09-17T10:08:57.518Z,24.23
2023-09-17T10:11:25.484Z,24.31
2023-09-17T10:13:56.700Z,24.13
2023-09-17T10:16:23.719Z,24.28
2023-09-17T10:18:53.004Z,24.34
2023-09-17T10:21:20.614Z,24.44
2023-09-17T10:23:49.781Z,24.50
2023-09-17T10:26:22.355Z,24.18
2023-09-17T10:28:51.959Z,24.54
2023-09-17T10:31:20.160Z,24.16
2023-09-17T10:33:49.956Z,24.54
2023-09-17T10:36:17.681Z,24.12
2023-09-17T10:38:47.765Z,24.03
2023-09-17T10:41:15.164Z,24.49
2023-09-17T10:43:45.994Z,24.65
2023-09-17T10:46:14.686Z,24.74
2023-09-17T10:48:43.278Z,24.84
2023-09-17T10:51:11.296Z,24.64
2023-09-17T10:53:39.073Z,25.16
2023-09-17T10:56:10.714Z,25.23
2023-09-17T10:58:45.704Z,24.72
2023-09-17T11:01:22.546Z,24.71
2023-09-17T11:03:57.503Z,24.87
2023-09-17T11:06:25.379Z,25.25
2023-09-17T11:08:57.491Z,25.20
2023-09-17T11:11:26.642Z,24.84
2023-09-17T11:13:54.994Z,25.25
2023-09-17T11:16:25.959Z,25.25
2023-09-17T11:19:12.167Z,25.26
2023-09-17T11:21:43.254Z,25.22
2023-09-17T11:24:14.969Z,25.30
2023-09-17T11:26:44.213Z,25.49
2023-09-17T11:29:12.514Z,25.21
2023-09-17T11:31:51.943Z,25.59
2023-09-17T11:34:19.572Z,25.74
2023-09-17T11:36:48.382Z,25.03
2023-09-17T11:39:17.613Z,25.60
2023-09-17T11:41:55.482Z,25.23
2023-09-17T11:44:23.624Z,24.97
2023-09-17T11:46:51.806Z,25.01
2023-09-17T11:49:20.149Z,25.04
2023-09-17T11:51:49.056Z,25.00
2023-09-17T11:54:24.972Z,24.98
2023-09-17T11:56:55.311Z,25.04
2023-09-17T11:59:26.207Z,25.17
2023-09-17T12:01:55.662Z,25.07
2023-09-17T12:04:31.361Z,25.10
2023-09-17T12:06:59.990Z,25.10
2023-09-17T12:09:48.033Z,25.43
2023-09-17T12:12:24.341Z,25.34
2023-09-17T12:14:51.813Z,25.34
2023-09-17T12:17:19.507Z,25.31
2023-09-17T12:19:58.681Z,25.30
2023-09-17T12:22:37.623Z,25.48
2023-09-17T12:25:27.756Z,25.56
2023-09-17T12:27:54.972Z,25.37
2023-09-17T12:30:22.539Z,25.51
2023-09-17T12:32:49.848Z,25.80
2023-09-17T12:35:17.539Z,25.91
2023-09-17T12:37:44.577Z,25.65
2023-09-17T12:40:14.513Z,25.52
2023-09-17T12:42:41.942Z,25.75
2023-09-17T12:45:10.139Z,25.34
2023-09-17T12:47:42.187Z,25.65
2023-09-17T12:50:10.022Z,25.59
2023-09-17T12:52:37.617Z,25.63
2023-09-17T12:55:05.320Z,25.42
2023-09-17T12:57:32.386Z,25.82
2023-09-17T13:00:00.791Z,25.74
2023-09-17T13:02:30.954Z,25.79
2023-09-17T13:04:59.206Z,25.94
2023-09-17T13:07:29.314Z,25.79
2023-09-17T13:09:59.189Z,26.06
2023-09-17T13:12:30.112Z,26.16
2023-09-17T13:14:58.345Z,26.08
2023-09-17T13:17:30.027Z,25.81
2023-09-17T13:20:03.203Z,25.99
2023-09-17T13:22:33.846Z,26.05
2023-09-17T13:25:09.214Z,26.43
2023-09-17T13:27:36.385Z,26.45
2023-09-17T13:30:03.628Z,26.51
2023-09-17T13:32:33.697Z,26.06
2023-09-17T13:35:01.120Z,26.35
2023-09-17T13:37:28.803Z,26.44
2023-09-17T13:39:56.544Z,26.23
2023-09-17T13:42:27.112Z,26.52
2023-09-17T13:44:57.706Z,26.01
2023-09-17T13:47:24.994Z,26.24
2023-09-17T13:49:52.198Z,26.61
2023-09-17T13:52:19.297Z,26.63
2023-09-17T13:54:47.065Z,26.33
2023-09-17T13:57:14.503Z,26.70
2023-09-17T13:59:41.744Z,26.21
2023-09-17T14:02:09.254Z,26.61
2023-09-17T14:04:36.482Z,26.14
2023-09-17T14:07:05.138Z,26.57
2023-09-17T14:09:32.569Z,26.12
2023-09-17T14:12:00.095Z,26.14
2023-09-17T14:14:27.134Z,26.23
2023-09-17T14:16:54.271Z,25.89
2023-09-17T14:19:21.715Z,25.93
2023-09-17T14:21:49.088Z,26.01
2023-09-17T14:24:16.505Z,26.23
2023-09-17T14:26:45.376Z,26.30
2023-09-17T14:29:19.097Z,26.35
2023-09-17T14:31:46.759Z,26.42
2023-09-17T14:34:17.433Z,26.32
2023-09-17T14:36:53.483Z,26.27
2023-09-17T14:39:20.948Z,25.75
2023-09-17T14:41:56.433Z,26.17
2023-09-17T14:44:28.045Z,26.24
2023-09-17T14:47:00.198Z,26.04
2023-09-17T14:49:27.819Z,26.00
2023-09-17T14:51:55.392Z,26.38
2023-09-17T14:54:23.906Z,25.93
2023-09-17T14:56:54.250Z,25.99
2023-09-17T14:59:22.015Z,25.88
2023-09-17T15:01:59.823Z,25.62
2023-09-17T15:04:29.472Z,25.97
2023-09-17T15:07:35.603Z,25.72
2023-09-17T15:10:03.994Z,25.11
2023-09-17T15:12:31.468Z,25.20
2023-09-17T15:14:58.580Z,24.60
2023-09-17T15:17:27.335Z,24.52
2023-09-17T15:19:54.445Z,24.80
2023-09-17T15:22:21.665Z,24.72
2023-09-17T15:24:48.999Z,24.59
2023-09-17T15:27:15.967Z,24.52
2023-09-17T15:29:42.977Z,24.31
2023-09-17T15:32:11.423Z,24.29
2023-09-17T15:34:41.535Z,24.23
2023-09-17T15:37:08.978Z,24.19
2023-09-17T15:39:36.764Z,24.05
2023-09-17T15:42:19.239Z,24.10
2023-09-17T15:44:46.217Z,23.92
2023-09-17T15:47:13.638Z,24.03
2023-09-17T15:49:42.157Z,23.77
2023-09-17T15:52:09.259Z,23.82
2023-09-17T15:54:39.573Z,23.88
2023-09-17T15:57:07.476Z,23.62
2023-09-17T15:59:34.760Z,23.72
2023-09-17T16:02:01.720Z,23.70
2023-09-17T16:04:29.282Z,23.59
2023-09-17T16:06:57.566Z,23.70
2023-09-17T16:09:24.780Z,23.67
2023-09-17T16:11:56.144Z,23.52
2023-09-17T16:14:23.208Z,23.51
2023-09-17T16:16:54.549Z,23.30
2023-09-17T16:19:27.723Z,23.31
2023-09-17T16:21:55.311Z,23.17
2023-09-17T16:24:22.429Z,23.23
2023-09-17T16:26:50.281Z,23.15
2023-09-17T16:29:17.227Z,23.03
2023-09-17T16:31:44.512Z,23.06
2023-09-17T16:34:11.666Z,22.87
2023-09-17T16:36:41.207Z,22.96
2023-09-17T16:39:08.981Z,22.96
2023-09-17T16:41:36.181Z,22.87
2023-09-17T16:44:04.092Z,22.88
2023-09-17T16:46:31.294Z,22.89
2023-09-17T16:48:58.290Z,22.66
2023-09-17T16:51:25.409Z,22.75
2023-09-17T16:53:55.414Z,22.66
2023-09-17T16:56:22.595Z,22.77
2023-09-17T16:58:49.853Z,22.59
2023-09-17T17:01:18.107Z,22.68
2023-09-17T17:03:45.254Z,22.53
2023-09-17T17:06:14.155Z,22.62
2023-09-17T17:08:41.444Z,22.57
2023-09-17T17:11:08.685Z,22.55
2023-09-17T17:13:36.281Z,22.29
2023-09-17T17:16:03.884Z,22.34
2023-09-17T17:18:31.120Z,22.40
2023-09-17T17:20:58.684Z,22.31
2023-09-17T17:23:25.939Z,22.33
2023-09-17T17:25:53.329Z,22.34
2023-09-17T17:28:20.473Z,22.35
2023-09-17T17:30:47.762Z,21.89
2023-09-17T17:33:15.234Z,22.24
2023-09-17T17:35:42.266Z,22.17
2023-09-17T17:38:09.453Z,22.06
2023-09-17T17:40:37.226Z,22.05
2023-09-17T17:43:04.437Z,21.97
2023-09-17T17:45:33.948Z,22.09
2023-09-17T17:48:01.770Z,22.12
2023-09-17T17:50:28.869Z,22.03
2023-09-17T17:52:55.992Z,22.04
2023-09-17T17:55:23.238Z,22.01
2023-09-17T17:57:53.526Z,21.96
2023-09-17T18:00:20.814Z,21.85
2023-09-17T18:02:48.914Z,21.41
2023-09-17T18:05:16.164Z,21.85
2023-09-17T18:07:45.323Z,21.75
2023-09-17T18:10:12.747Z,21.52
2023-09-17T18:12:42.948Z,21.71
2023-09-17T18:15:11.028Z,21.71
2023-09-17T18:17:39.242Z,21.72
2023-09-17T18:20:07.432Z,21.49
2023-09-17T18:22:34.983Z,21.55
2023-09-17T18:25:02.184Z,21.54
2023-09-17T18:27:29.260Z,21.58
2023-09-17T18:29:56.437Z,21.45
2023-09-17T18:32:25.436Z,21.32
2023-09-17T18:34:54.861Z,21.49
2023-09-17T18:37:22.273Z,21.45
2023-09-17T18:39:49.734Z,21.45
2023-09-17T18:42:17.645Z,21.40
2023-09-17T18:44:44.665Z,21.28
2023-09-17T18:47:11.792Z,21.39
2023-09-17T18:49:38.963Z,21.01
2023-09-17T18:52:05.912Z,21.29
2023-09-17T18:54:33.138Z,21.15
2023-09-17T18:57:04.181Z,21.28
2023-09-17T18:59:31.345Z,21.19
2023-09-17T19:01:58.549Z,21.17
2023-09-17T19:04:25.679Z,21.26
2023-09-17T19:06:52.826Z,21.22
2023-09-17T19:09:19.888Z,20.91
2023-09-17T19:11:46.964Z,21.12
2023-09-17T19:14:14.023Z,20.75
2023-09-17T19:16:41.286Z,20.90
2023-09-17T19:19:08.445Z,20.90
2023-09-17T19:21:37.091Z,20.94
2023-09-17T19:24:05.502Z,20.80
2023-09-17T19:26:32.680Z,20.81
2023-09-17T19:29:04.491Z,20.96
2023-09-17T19:31:32.087Z,20.93
2023-09-17T19:34:02.190Z,20.84
2023-09-17T19:36:29.126Z,20.77
2023-09-17T19:38:57.393Z,20.59
2023-09-17T19:41:25.816Z,20.67
2023-09-17T19:44:22.581Z,20.48
2023-09-17T19:47:15.208Z,20.39
2023-09-17T19:49:45.162Z,20.46
2023-09-17T19:52:12.863Z,20.38
2023-09-17T19:54:49.837Z,20.37
2023-09-17T19:57:18.209Z,20.06
2023-09-17T19:59:45.253Z,20.15
2023-09-17T20:02:12.650Z,20.01
2023-09-17T20:04:39.806Z,20.12
2023-09-17T20:07:07.008Z,20.13
2023-09-17T20:09:34.214Z,20.15
2023-09-17T20:12:01.657Z,20.15
2023-09-17T20:14:28.692Z,20.14
2023-09-17T20:16:55.834Z,20.13
2023-09-17T20:19:23.170Z,20.12
2023-09-17T20:21:51.470Z,20.14
2023-09-17T20:24:18.607Z,20.11
2023-09-17T20:26:46.208Z,19.90
2023-09-17T20:29:13.621Z,20.11
2023-09-17T20:31:54.680Z,20.02
2023-09-17T20:34:23.693Z,20.09
2023-09-17T20:36:51.342Z,20.02
2023-09-17T20:39:18.247Z,20.02
2023-09-17T20:41:57.565Z,20.01
2023-09-17T20:47:09.538Z,19.63
2023-09-17T20:49:36.612Z,19.37
2023-09-17T20:52:03.878Z,19.49
2023-09-17T20:54:31.025Z,19.34
2023-09-17T20:56:59.111Z,19.36
2023-09-17T20:59:26.068Z,19.04
2023-09-17T21:01:54.560Z,19.21
2023-09-17T21:04:21.706Z,19.19
2023-09-17T21:06:48.826Z,19.32
2023-09-17T21:09:27.513Z,19.20
2023-09-17T21:11:55.133Z,19.00
2023-09-17T21:14:22.873Z,18.99
2023-09-17T21:16:50.015Z,18.97
2023-09-17T21:19:17.374Z,18.89
2023-09-17T21:21:44.278Z,18.86
2023-09-17T21:24:11.336Z,18.82
2023-09-17T21:26:38.415Z,18.68
2023-09-17T21:29:05.684Z,18.79
2023-09-17T21:31:32.933Z,18.76
2023-09-17T21:34:00.127Z,18.58
2023-09-17T21:36:27.236Z,18.44
2023-09-17T21:38:54.805Z,18.55
2023-09-17T21:41:22.165Z,18.50
2023-09-17T21:43:49.323Z,18.46
2023-09-17T21:46:16.586Z,18.46
2023-09-17T21:48:43.709Z,18.45
2023-09-17T21:51:10.756Z,18.39
2023-09-17T21:53:37.688Z,18.30
2023-09-17T21:56:05.173Z,18.37
2023-09-17T21:58:32.380Z,18.38
2023-09-17T22:00:59.738Z,18.37
2023-09-17T22:03:26.859Z,18.31
2023-09-17T22:05:53.957Z,18.26
2023-09-17T22:08:22.272Z,18.24
2023-09-17T22:10:49.645Z,18.24
2023-09-17T22:13:16.887Z,18.10
2023-09-17T22:15:44.757Z,18.22
2023-09-17T22:18:11.875Z,18.19
2023-09-17T22:20:39.144Z,18.12
2023-09-17T22:23:07.022Z,17.89
2023-09-17T22:25:34.294Z,18.03
2023-09-17T22:28:02.114Z,17.79
2023-09-17T22:30:29.103Z,17.90
2023-09-17T22:32:56.239Z,17.86
2023-09-17T22:35:23.474Z,17.91
2023-09-17T22:37:50.994Z,17.84
2023-09-17T22:40:18.199Z,17.72
2023-09-17T22:42:45.660Z,17.59
2023-09-17T22:45:13.019Z,17.25
2023-09-17T22:47:40.236Z,17.50
2023-09-17T22:50:08.073Z,17.31
2023-09-17T22:52:35.439Z,17.41
2023-09-17T22:55:02.615Z,17.34
2023-09-17T22:57:29.858Z,17.30
2023-09-17T22:59:56.884Z,17.30
2023-09-17T23:02:24.324Z,17.19
2023-09-17T23:04:51.521Z,17.16
2023-09-17T23:07:18.706Z,17.15
2023-09-17T23:09:45.682Z,17.00
2023-09-17T23:12:14.803Z,17.04
2023-09-17T23:14:41.802Z,17.05
2023-09-17T23:17:08.937Z,17.00
2023-09-17T23:19:36.962Z,16.92
2023-09-17T23:22:07.033Z,16.84
2023-09-17T23:24:34.117Z,16.83
2023-09-17T23:27:01.188Z,16.84
2023-09-17T23:29:29.297Z,16.76
2023-09-17T23:31:56.840Z,16.71
2023-09-17T23:34:25.731Z,16.80
2023-09-17T23:36:52.933Z,16.63
2023-09-17T23:39:19.857Z,16.71
2023-09-17T23:41:46.864Z,16.63
2023-09-17T23:44:14.077Z,16.73
2023-09-17T23:46:41.167Z,16.68
2023-09-17T23:49:08.443Z,16.65
2023-09-17T23:51:35.334Z,16.59
2023-09-17T23:54:02.296Z,16.60
2023-09-17T23:56:29.587Z,16.57
2023-09-17T23:58:56.690Z,16.52
